11LL weather

Thacker Airport
Chenoa, Illinois, United States

Public forecast

Using degrees Fahrenheit for public forecast. Weather courtesy of forecast.io.

METAR (pilot weather report)

Closest report is Pontiac Municipal Airport, 13.8 nm (25.6 km) NNE. Retrieved 2019/05/25 06:35 UTC (25 minutes ago):

KPNT 250635Z AUTO 20012G15KT 10SM CLR 24/21 A2992 RMK AO2 T02410210

TAF (pilot weather forecast)

Closest forecast is Central Illinois Regional Airport at Bloomington-Normal, 16.2 nm (30.0 km) SSW. Retrieved 2019/05/25 06:22 UTC (38 minutes ago):

TAF KBMI 250520Z 2506/2606 20012KT P6SM BKN100 FM250800 20009KT P6SM VCTS SCT050CB BKN100 FM251800 23014KT P6SM SHRA VCTS OVC070CB FM252000 23014G22KT P6SM VCTS BKN080CB FM260000 23011KT P6SM BKN090